Главная страница
METAR-TAF:

METAR-TAF

Аэропорты :

Король Абдул-Азиз

Джидда, Саудовская Аравия

широта: 21-42N, долгота: 039-11E, высота над уровнем моря: 15 м

Текущие метеонаблюдения

Эта сводка был подготовлена 34 минут назад, в 13:00 UTC
Ветер 8 Узел от западный
Температура 36°C
Влажность 45%
Давление 1002 hPa
Видимость 10 км и более
Нет облачности ниже 1500 м, и нет кучево-дождевой облачности

METAR: OEJN 141300Z 26008KT CAVOK 36/22 Q1002 NOSIG

Время: 16:34 (13:34 UTC)

Прогноз

Эта сводка был подготовлена 2 часа и 34 минут назад, в 11:00 UTC
Прогноз действительный с 14-го 12 UTC до 15-го 18 UTC
Ветер 8 Узел от западно-северо-западный с порывами до 18 Узел
Видимость 10 км и более
небольшая облачность на высоте 4000 фута
изменения
С 14-го 18 UTC до 14-го 20 UTC
Ветер 3 Узел переменных направлений

TAF: OEJN 141100Z 1412/1518 30008G18KT 9999 FEW040 BECMG 1418/1420 VRB03KT

Метеонаблюдения и прогнозы для более 4000 аэропортов (сводки METAR и TAF).

Имеющиеся станции представлены на карте желтыми и красными точками.

Чтобы увидеть название станции, наведите на нее мышь.

Затем щелкните, чтобы увидеть метеонаблюдения и метеопрогнозы.

Управление картой: чтобы увеличить масштаб, щелкните зеленые кнопки с черным крестиком; чтобы уменьшить масштаб, щелкните зеленую кнопку с тире; для просмотра соседних карт щелкайте зеленые стрелки.


METAR-TAF: